Time;durP1;ratioP1;P1;durP2;ratioP2;P2;SDS_P1;SDS_P2;PMS_P1;PMS_P2;Temp;Humidity;BMP_temperature;BMP_pressure;BME280_temperature;BME280_humidity;BME280_pressure;Samples;Min_cycle;Max_cycle;Signal;HPM_P1;HPM_P2
2022/05/15 00:00:37;;;;;;;17.50;4.23;;;;;;;9.75;80.37;100033.22;4234036;28;20317;-67
2022/05/15 00:03:05;;;;;;;14.87;5.10;;;;;;;9.64;80.69;100044.88;4236590;28;20264;-64
2022/05/15 00:05:32;;;;;;;18.20;4.53;;;;;;;9.55;81.00;100035.97;4237303;28;23165;-68
2022/05/15 00:07:59;;;;;;;23.37;5.77;;;;;;;9.39;81.64;100035.75;4234185;28;20239;-65
2022/05/15 00:10:25;;;;;;;25.60;5.63;;;;;;;9.38;81.78;100042.06;4227864;28;20234;-67
2022/05/15 00:12:52;;;;;;;21.20;5.73;;;;;;;9.27;82.34;100035.97;4220305;28;20234;-66
2022/05/15 00:15:19;;;;;;;19.83;5.60;;;;;;;9.18;82.72;100036.84;4237549;28;20266;-66
2022/05/15 00:17:45;;;;;;;15.60;4.87;;;;;;;9.28;82.54;100040.28;4235961;28;20696;-70
2022/05/15 00:20:12;;;;;;;15.53;5.37;;;;;;;9.21;83.00;100033.06;4238049;28;20277;-73
2022/05/15 00:22:40;;;;;;;14.97;4.73;;;;;;;9.20;83.17;100039.34;4218224;28;20393;-70
2022/05/15 00:25:07;;;;;;;16.07;4.70;;;;;;;9.18;83.31;100034.19;4238859;28;20235;-70
2022/05/15 00:27:33;;;;;;;15.63;5.00;;;;;;;9.23;83.19;100039.91;4240964;28;20295;-70
2022/05/15 00:30:00;;;;;;;14.50;4.93;;;;;;;9.30;83.06;100043.66;4240062;28;20326;-68
2022/05/15 00:32:27;;;;;;;16.17;4.20;;;;;;;9.36;82.45;100046.69;4237519;28;20235;-68
2022/05/15 00:34:53;;;;;;;13.70;4.37;;;;;;;9.33;82.53;100050.47;4223000;28;20249;-69
2022/05/15 00:37:19;;;;;;;14.63;4.30;;;;;;;9.31;82.35;100049.78;4242844;28;20718;-69
2022/05/15 00:39:46;;;;;;;15.40;3.90;;;;;;;9.38;82.08;100048.22;4233566;28;20340;-69
2022/05/15 00:42:13;;;;;;;12.57;4.03;;;;;;;9.43;81.55;100048.59;4238438;28;20230;-69
2022/05/15 00:44:39;;;;;;;15.30;3.83;;;;;;;9.40;81.16;100056.03;4234413;28;20308;-69
2022/05/15 00:47:06;;;;;;;14.83;4.00;;;;;;;9.35;81.65;100053.00;4239989;28;20237;-69
2022/05/15 00:49:33;;;;;;;10.33;4.10;;;;;;;9.37;81.87;100051.03;4222691;28;20238;-70
2022/05/15 00:52:05;;;;;;;12.20;3.67;;;;;;;9.36;81.78;100049.34;4240072;28;23213;-70
2022/05/15 00:54:35;;;;;;;14.60;3.13;;;;;;;9.45;81.16;100046.63;4221339;28;23748;-70
2022/05/15 00:57:17;;;;;;;11.80;3.97;;;;;;;9.44;80.38;100046.81;4217539;28;22710;-72
2022/05/15 00:59:54;;;;;;;12.77;3.03;;;;;;;9.26;81.26;100050.22;4213666;28;20239;-71
2022/05/15 01:02:23;;;;;;;14.17;3.30;;;;;;;9.31;81.37;100047.13;4240760;28;20255;-68
2022/05/15 01:04:50;;;;;;;17.10;3.93;;;;;;;9.38;81.16;100050.03;4230475;28;20246;-73
2022/05/15 01:07:16;;;;;;;13.10;3.30;;;;;;;9.38;80.66;100050.03;4233965;28;20297;-72
2022/05/15 01:09:43;;;;;;;10.43;3.03;;;;;;;9.28;80.99;100050.09;4240720;28;20240;-71
2022/05/15 01:12:11;;;;;;;11.23;3.13;;;;;;;9.17;81.48;100045.78;4239298;28;20231;-70
2022/05/15 01:14:40;;;;;;;11.10;3.00;;;;;;;9.24;81.10;100046.03;4227854;28;21856;-70
2022/05/15 01:17:07;;;;;;;14.90;3.00;;;;;;;9.07;82.05;100045.00;4226336;28;21368;-71
2022/05/15 01:19:37;;;;;;;7.97;2.93;;;;;;;9.09;82.10;100043.03;4255585;28;20676;-69
2022/05/15 01:22:05;;;;;;;11.80;3.53;;;;;;;9.05;82.45;100044.28;4235568;28;20651;-71
2022/05/15 01:24:32;;;;;;;11.23;2.97;;;;;;;9.10;81.84;100050.00;4237031;28;20230;-70
2022/05/15 01:27:03;;;;;;;9.53;2.73;;;;;;;9.09;81.90;100048.34;4239601;28;20223;-70
2022/05/15 01:29:31;;;;;;;11.73;3.13;;;;;;;8.90;82.68;100038.63;4218714;28;20363;-71
2022/05/15 01:31:58;;;;;;;10.83;3.00;;;;;;;8.88;83.30;100045.88;4227611;28;21890;-69
2022/05/15 01:34:25;;;;;;;12.43;3.57;;;;;;;8.82;83.45;100047.28;4240342;28;21574;-70
2022/05/15 01:36:53;;;;;;;9.57;3.27;;;;;;;8.84;83.01;100053.28;4221817;28;20238;-71
2022/05/15 01:39:19;;;;;;;12.17;2.97;;;;;;;8.74;83.26;100047.16;4230945;28;25982;-72
2022/05/15 01:41:46;;;;;;;13.40;3.27;;;;;;;8.65;84.14;100050.69;4250461;28;21231;-72
2022/05/15 01:44:12;;;;;;;12.20;4.00;;;;;;;8.68;84.25;100061.00;4239608;28;20356;-72
2022/05/15 01:46:39;;;;;;;10.20;3.30;;;;;;;8.72;83.53;100059.75;4229234;28;21253;-70
2022/05/15 01:49:06;;;;;;;13.97;3.43;;;;;;;8.62;84.38;100057.09;4252449;28;20232;-74
2022/05/15 01:51:34;;;;;;;18.03;3.07;;;;;;;8.54;84.12;100053.47;4225098;28;20719;-72
2022/05/15 01:54:02;;;;;;;14.30;3.43;;;;;;;8.39;85.40;100051.22;4224085;28;20237;-70
2022/05/15 01:56:28;;;;;;;9.47;2.97;;;;;;;8.28;86.09;100054.03;4243087;28;20279;-71
2022/05/15 01:58:58;;;;;;;9.53;2.93;;;;;;;8.26;86.58;100058.63;4237945;28;20257;-71
2022/05/15 02:01:25;;;;;;;17.27;3.50;;;;;;;8.30;86.36;100056.53;4241567;28;20239;-72
2022/05/15 02:03:51;;;;;;;17.83;3.43;;;;;;;8.28;85.83;100055.84;4252066;28;21801;-70
2022/05/15 02:06:18;;;;;;;17.13;4.40;;;;;;;8.33;85.89;100051.78;4234078;28;21231;-71
2022/05/15 02:08:44;;;;;;;13.33;3.03;;;;;;;8.14;86.35;100055.25;4249254;28;20226;-70
2022/05/15 02:11:11;;;;;;;14.50;3.10;;;;;;;8.18;86.41;100059.31;4237485;28;20247;-69
2022/05/15 02:13:38;;;;;;;15.10;3.80;;;;;;;8.17;86.67;100059.44;4241093;28;20233;-71
2022/05/15 02:16:04;;;;;;;17.33;3.27;;;;;;;8.23;85.95;100058.91;4222928;28;20292;-73
2022/05/15 02:18:31;;;;;;;13.47;3.20;;;;;;;8.11;86.97;100052.06;4237119;28;23048;-72
2022/05/15 02:20:57;;;;;;;13.80;3.90;;;;;;;8.12;86.68;100059.88;4223413;28;20232;-68
2022/05/15 02:23:26;;;;;;;11.87;3.33;;;;;;;8.14;86.24;100057.09;4241228;28;20469;-71
2022/05/15 02:25:53;;;;;;;15.20;3.30;;;;;;;8.02;87.42;100053.72;4235734;28;20297;-71
2022/05/15 02:28:20;;;;;;;14.33;3.33;;;;;;;8.03;87.27;100058.91;4247294;28;22543;-72
2022/05/15 02:30:48;;;;;;;16.23;2.93;;;;;;;8.18;86.87;100066.44;4224122;28;20615;-70
2022/05/15 02:33:15;;;;;;;11.37;3.30;;;;;;;8.26;86.52;100066.56;4247898;28;20238;-70
2022/05/15 02:35:41;;;;;;;10.47;2.90;;;;;;;8.24;85.77;100066.72;4242176;28;21610;-71
2022/05/15 02:38:08;;;;;;;10.47;2.93;;;;;;;8.22;86.21;100068.69;4240944;28;20346;-71
2022/05/15 02:40:35;;;;;;;13.33;3.40;;;;;;;8.11;86.20;100062.69;4232923;28;20411;-70
2022/05/15 02:43:01;;;;;;;12.27;2.87;;;;;;;8.16;86.93;100071.03;4236093;28;20227;-70
2022/05/15 02:45:28;;;;;;;15.83;2.90;;;;;;;8.14;86.22;100067.69;4231840;28;20284;-70
2022/05/15 02:47:54;;;;;;;12.03;3.13;;;;;;;8.01;87.19;100068.78;4237247;28;23679;-71
2022/05/15 02:53:07;;;;;;;16.20;3.37;;;;;;;8.02;86.88;100059.84;4239184;28;20237;-71
2022/05/15 02:55:34;;;;;;;11.97;2.57;;;;;;;7.96;87.61;100060.44;4244538;28;20247;-72
2022/05/15 02:58:00;;;;;;;18.77;3.13;;;;;;;7.87;87.89;100071.00;4253789;28;20242;-71
2022/05/15 03:00:27;;;;;;;9.43;3.80;;;;;;;7.85;88.20;100063.19;4253245;28;24436;-70
2022/05/15 03:02:54;;;;;;;15.23;3.60;;;;;;;7.82;88.57;100074.06;4234154;28;21305;-73
2022/05/15 03:05:27;;;;;;;16.23;3.53;;;;;;;7.79;89.18;100075.16;4253928;28;20231;-72
2022/05/15 03:07:54;;;;;;;11.20;3.10;;;;;;;7.82;88.52;100071.41;4247546;28;20268;-72
2022/05/15 03:10:22;;;;;;;12.47;3.40;;;;;;;7.82;89.12;100074.06;4252863;28;20292;-70
2022/05/15 03:12:49;;;;;;;22.00;4.07;;;;;;;7.86;88.61;100070.16;4245234;28;21378;-71
2022/05/15 03:15:16;;;;;;;9.93;3.37;;;;;;;7.78;89.48;100073.50;4266261;28;20645;-70
2022/05/15 03:17:43;;;;;;;10.13;2.87;;;;;;;7.79;89.38;100079.63;4255245;28;21028;-70
2022/05/15 03:20:12;;;;;;;13.27;3.33;;;;;;;7.87;88.61;100078.97;4239278;28;20312;-70
2022/05/15 03:22:39;;;;;;;13.17;3.30;;;;;;;7.85;88.45;100089.69;4259407;28;20232;-70
2022/05/15 03:25:07;;;;;;;8.77;3.17;;;;;;;7.85;88.06;100078.25;4242442;28;20240;-68
2022/05/15 03:27:33;;;;;;;14.80;3.27;;;;;;;7.96;88.15;100081.63;4238397;28;21563;-72
2022/05/15 03:30:01;;;;;;;10.37;3.37;;;;;;;7.71;88.65;100088.25;4240543;28;20298;-71
2022/05/15 03:32:27;;;;;;;11.90;3.47;;;;;;;7.74;89.33;100087.13;4224658;28;23069;-72
2022/05/15 03:34:54;;;;;;;8.30;3.40;;;;;;;7.65;89.57;100085.31;4231151;28;20235;-71
2022/05/15 03:37:21;;;;;;;14.90;3.47;;;;;;;7.70;89.43;100091.03;4251396;28;20236;-73
2022/05/15 03:39:47;;;;;;;13.80;3.27;;;;;;;7.67;89.84;100093.94;4242640;28;20231;-70
2022/05/15 03:42:13;;;;;;;14.20;3.80;;;;;;;7.64;89.76;100091.59;4239737;28;20223;-71
2022/05/15 03:44:40;;;;;;;10.87;3.70;;;;;;;7.68;90.36;100088.53;4238232;28;21204;-72
2022/05/15 03:47:07;;;;;;;13.83;3.27;;;;;;;7.68;90.02;100103.56;4248777;28;21312;-70
2022/05/15 03:49:34;;;;;;;9.70;3.77;;;;;;;7.69;90.34;100103.44;4234133;28;20238;-72
2022/05/15 03:52:02;;;;;;;15.93;3.87;;;;;;;7.70;90.21;100105.13;4243186;28;20280;-70
2022/05/15 03:54:29;;;;;;;17.17;4.40;;;;;;;7.77;90.31;100108.06;4241814;28;20219;-71
2022/05/15 03:56:56;;;;;;;12.03;3.37;;;;;;;7.69;90.43;100105.25;4252339;28;20250;-71
2022/05/15 03:59:29;;;;;;;12.70;3.63;;;;;;;7.82;91.07;100109.34;4229588;28;20345;-71
2022/05/15 04:01:56;;;;;;;13.83;4.50;;;;;;;7.90;90.89;100116.59;4231689;28;20281;-71
2022/05/15 04:04:22;;;;;;;16.70;3.90;;;;;;;7.95;90.38;100117.03;4247233;28;20391;-69
2022/05/15 04:06:49;;;;;;;13.50;4.07;;;;;;;8.02;90.69;100109.38;4242239;28;20474;-71
2022/05/15 04:09:16;;;;;;;13.90;4.27;;;;;;;8.02;90.21;100118.16;4242200;28;20294;-72
2022/05/15 04:11:42;;;;;;;12.07;4.40;;;;;;;8.10;90.70;100121.94;4246806;28;20342;-70
2022/05/15 04:14:09;;;;;;;9.33;3.93;;;;;;;8.28;90.06;100117.63;4246104;28;21778;-70
2022/05/15 04:16:36;;;;;;;12.93;3.80;;;;;;;8.47;88.93;100126.63;4251423;28;21548;-70
2022/05/15 04:19:04;;;;;;;14.97;3.77;;;;;;;8.54;88.12;100128.56;4247078;28;20239;-69
2022/05/15 04:21:36;;;;;;;15.20;4.50;;;;;;;8.55;87.78;100129.44;4237167;28;20234;-70
2022/05/15 04:24:08;;;;;;;14.13;4.40;;;;;;;8.57;88.30;100138.91;4233955;28;20311;-70
2022/05/15 04:26:36;;;;;;;13.97;4.07;;;;;;;8.64;88.17;100139.19;4245392;28;20241;-71
2022/05/15 04:29:03;;;;;;;11.80;4.40;;;;;;;8.95;87.17;100136.38;4245406;28;20324;-70
2022/05/15 04:31:30;;;;;;;12.43;4.00;;;;;;;8.97;85.88;100145.88;4242254;28;20234;-70
2022/05/15 04:33:56;;;;;;;16.30;4.40;;;;;;;9.02;86.73;100137.50;4250386;28;20244;-70
2022/05/15 04:36:30;;;;;;;13.50;4.10;;;;;;;9.24;85.99;100142.44;4239393;28;25530;-71
2022/05/15 04:38:57;;;;;;;13.40;4.17;;;;;;;9.23;84.35;100143.44;4237426;28;20264;-70
2022/05/15 04:41:24;;;;;;;19.90;4.07;;;;;;;9.18;84.81;100148.34;4247673;28;21603;-72
2022/05/15 04:43:51;;;;;;;11.37;3.83;;;;;;;9.32;84.58;100144.41;4248166;28;21724;-69
2022/05/15 04:46:18;;;;;;;9.33;3.23;;;;;;;9.50;83.44;100142.69;4233088;28;20249;-70
2022/05/15 04:48:44;;;;;;;10.60;3.07;;;;;;;9.71;82.59;100150.41;4242393;28;20238;-70
2022/05/15 04:51:11;;;;;;;14.47;3.40;;;;;;;9.83;81.34;100155.53;4247169;28;20226;-70
2022/05/15 04:53:37;;;;;;;12.73;3.40;;;;;;;9.75;80.46;100152.78;4243770;28;20232;-70
2022/05/15 04:56:04;;;;;;;11.57;3.37;;;;;;;9.79;80.65;100151.50;4245085;28;20230;-71
2022/05/15 04:58:31;;;;;;;14.27;3.33;;;;;;;9.94;78.77;100150.03;4239991;28;21183;-70
2022/05/15 05:00:57;;;;;;;6.03;2.13;;;;;;;9.97;79.39;100152.38;4236211;28;20414;-71
2022/05/15 05:03:24;;;;;;;15.67;3.13;;;;;;;10.07;78.66;100155.84;4240605;28;26006;-71
2022/05/15 05:05:51;;;;;;;12.37;2.80;;;;;;;10.07;77.71;100155.84;4241677;28;25590;-70
2022/05/15 05:08:17;;;;;;;9.87;2.30;;;;;;;10.22;77.18;100163.31;4247503;28;20238;-71
2022/05/15 05:10:44;;;;;;;8.93;2.37;;;;;;;10.29;75.29;100156.44;4240484;28;20234;-71
2022/05/15 05:13:10;;;;;;;11.60;2.90;;;;;;;10.28;75.47;100163.59;4246042;28;21006;-71
2022/05/15 05:15:37;;;;;;;7.67;1.97;;;;;;;10.39;73.07;100159.84;4221979;28;22088;-71
2022/05/15 05:18:04;;;;;;;8.93;1.80;;;;;;;10.54;73.27;100168.16;4248727;28;20238;-70
2022/05/15 05:20:31;;;;;;;9.20;2.00;;;;;;;10.70;71.62;100173.66;4227900;28;20231;-70
2022/05/15 05:22:57;;;;;;;11.40;2.50;;;;;;;10.81;70.16;100169.91;4245374;28;20260;-69
2022/05/15 05:25:24;;;;;;;4.83;2.13;;;;;;;10.92;69.82;100174.16;4238856;28;21637;-70
2022/05/15 05:27:50;;;;;;;11.57;2.13;;;;;;;10.91;69.40;100176.00;4245049;28;21686;-70
2022/05/15 05:30:22;;;;;;;16.70;2.37;;;;;;;10.93;69.27;100174.03;4264435;28;20623;-70
2022/05/15 05:32:49;;;;;;;9.37;1.73;;;;;;;11.15;67.22;100182.50;4250779;28;20240;-69
2022/05/15 05:35:17;;;;;;;8.47;1.80;;;;;;;11.25;67.13;100161.94;4236157;28;21807;-70
2022/05/15 05:37:43;;;;;;;6.37;1.50;;;;;;;11.41;67.07;100174.53;4244167;28;20297;-68
2022/05/15 05:40:10;;;;;;;10.10;2.00;;;;;;;11.66;65.62;100180.84;4245056;28;20328;-71
2022/05/15 05:42:38;;;;;;;6.03;1.77;;;;;;;12.08;63.56;100180.06;4248944;28;20231;-71
2022/05/15 05:45:06;;;;;;;6.47;1.87;;;;;;;13.10;61.04;100186.06;4299373;28;20263;-69
2022/05/15 05:47:33;;;;;;;7.60;1.80;;;;;;;13.65;59.23;100181.84;4262171;28;25598;-70
2022/05/15 05:49:59;;;;;;;10.47;1.87;;;;;;;14.64;54.06;100191.13;4247894;28;20231;-69
2022/05/15 05:52:26;;;;;;;10.37;1.90;;;;;;;15.43;50.21;100204.25;4243887;28;20787;-68
2022/05/15 05:54:53;;;;;;;8.63;1.63;;;;;;;15.27;49.63;100194.50;4228786;28;20243;-69
2022/05/15 05:57:20;;;;;;;9.37;1.77;;;;;;;15.23;50.19;100193.19;4257648;28;21492;-68
2022/05/15 05:59:47;;;;;;;8.40;1.53;;;;;;;14.85;50.57;100195.00;4240463;28;20668;-64
2022/05/15 06:02:14;;;;;;;12.13;2.03;;;;;;;15.16;49.74;100201.09;4237033;28;23326;-67
2022/05/15 06:04:42;;;;;;;5.93;1.20;;;;;;;15.98;46.60;100200.31;4245158;28;20240;-66
2022/05/15 06:07:18;;;;;;;9.50;1.77;;;;;;;16.58;44.94;100205.59;4241137;28;22903;-64
2022/05/15 06:09:46;;;;;;;12.80;1.67;;;;;;;17.07;43.14;100211.06;4236918;28;20228;-65
2022/05/15 06:12:17;;;;;;;9.83;1.67;;;;;;;16.97;44.57;100217.78;4249717;28;22150;-65
2022/05/15 06:14:43;;;;;;;7.07;1.50;;;;;;;17.85;42.35;100210.25;4229299;28;21875;-66
2022/05/15 06:17:10;;;;;;;10.57;1.57;;;;;;;17.95;40.47;100218.78;4225292;28;20230;-66
2022/05/15 06:19:38;;;;;;;9.27;1.70;;;;;;;17.64;40.05;100227.25;4248965;28;20666;-65
2022/05/15 06:22:05;;;;;;;9.20;1.50;;;;;;;17.83;40.13;100217.69;4284015;28;20296;-63
2022/05/15 06:24:31;;;;;;;10.77;1.67;;;;;;;17.03;41.21;100227.78;4238055;28;25566;-64
2022/05/15 06:26:59;;;;;;;10.60;1.83;;;;;;;17.34;41.23;100232.00;4263728;28;21344;-65
2022/05/15 06:29:27;;;;;;;4.67;1.37;;;;;;;17.64;39.75;100228.09;4272102;28;20730;-66
2022/05/15 06:31:54;;;;;;;11.63;2.07;;;;;;;17.35;40.79;100222.88;4285208;28;20548;-67
2022/05/15 06:34:22;;;;;;;7.10;1.47;;;;;;;17.82;40.81;100235.69;4255491;28;20591;-66
2022/05/15 06:36:48;;;;;;;5.43;1.60;;;;;;;18.22;37.30;100241.31;4258345;28;20236;-67
2022/05/15 06:39:15;;;;;;;10.13;1.40;;;;;;;19.49;35.38;100255.94;4297927;28;22317;-65
2022/05/15 06:41:49;;;;;;;5.50;1.40;;;;;;;19.57;34.16;100244.09;4268056;28;20245;-66
2022/05/15 06:44:17;;;;;;;7.17;1.50;;;;;;;19.57;34.46;100250.34;4248451;28;20648;-67
2022/05/15 06:46:45;;;;;;;5.47;1.37;;;;;;;19.81;34.26;100254.28;4276867;28;21537;-67
2022/05/15 06:49:13;;;;;;;7.23;1.60;;;;;;;19.44;35.37;100252.22;4263909;28;20425;-66
2022/05/15 06:51:40;;;;;;;8.30;1.40;;;;;;;19.58;34.17;100251.16;4245064;28;20343;-68
2022/05/15 06:54:07;;;;;;;5.20;1.47;;;;;;;19.89;33.51;100257.81;4242377;28;20340;-67
2022/05/15 06:59:21;;;;;;;7.13;1.67;;;;;;;17.65;38.89;100245.91;4246691;28;20257;-66
2022/05/15 07:01:48;;;;;;;7.17;1.83;;;;;;;17.93;38.53;100239.69;4234220;28;21803;-68
2022/05/15 07:04:14;;;;;;;8.93;1.50;;;;;;;19.49;35.42;100260.50;4245231;28;20707;-67
2022/05/15 07:06:41;;;;;;;10.43;1.97;;;;;;;20.11;34.46;100247.56;4232889;28;20237;-70
2022/05/15 07:09:07;;;;;;;5.90;1.73;;;;;;;21.86;31.04;100266.91;4278379;28;20229;-69
2022/05/15 07:11:34;;;;;;;6.97;1.50;;;;;;;22.30;29.72;100270.44;4225986;28;20231;-66
2022/05/15 07:14:00;;;;;;;6.87;1.57;;;;;;;23.28;28.34;100273.16;4251244;28;20417;-65
2022/05/15 07:16:27;;;;;;;5.70;1.20;;;;;;;22.76;28.93;100274.47;4244246;28;21635;-65
2022/05/15 07:18:54;;;;;;;8.97;1.90;;;;;;;21.45;30.37;100262.94;4237985;28;20250;-66
2022/05/15 07:21:20;;;;;;;7.47;1.67;;;;;;;20.48;32.04;100266.78;4222949;28;20223;-65
2022/05/15 07:23:48;;;;;;;7.43;1.33;;;;;;;19.63;33.82;100253.25;4254816;28;20279;-64
2022/05/15 07:26:14;;;;;;;8.30;1.50;;;;;;;18.27;35.45;100246.09;4259088;28;20438;-67
2022/05/15 07:28:41;;;;;;;9.93;1.43;;;;;;;17.17;37.94;100245.69;4247326;28;22197;-65
2022/05/15 07:31:08;;;;;;;8.40;1.90;;;;;;;16.58;39.52;100237.84;4249309;28;20365;-65
2022/05/15 07:33:35;;;;;;;12.23;1.50;;;;;;;16.19;41.33;100239.81;4231693;28;20237;-66
2022/05/15 07:36:01;;;;;;;5.67;1.07;;;;;;;15.82;41.75;100241.56;4241514;28;20734;-65
2022/05/15 07:38:28;;;;;;;8.50;1.97;;;;;;;15.59;43.01;100244.31;4254947;28;25607;-64
2022/05/15 07:40:55;;;;;;;8.23;1.30;;;;;;;15.45;42.91;100245.09;4245397;28;20237;-66
2022/05/15 07:43:30;;;;;;;6.23;1.63;;;;;;;15.69;43.02;100253.94;4247430;28;20245;-68
2022/05/15 07:45:57;;;;;;;8.50;1.40;;;;;;;16.40;40.68;100244.44;4256482;28;20231;-70
2022/05/15 07:48:24;;;;;;;11.03;1.57;;;;;;;16.09;42.18;100246.50;4269216;28;20686;-67
2022/05/15 07:50:52;;;;;;;6.10;1.37;;;;;;;16.12;41.46;100241.59;4253515;28;20362;-66
2022/05/15 07:53:19;;;;;;;6.60;1.40;;;;;;;16.42;40.50;100253.13;4286905;28;21337;-66
2022/05/15 07:55:45;;;;;;;5.83;1.53;;;;;;;16.96;39.74;100257.28;4235600;28;20231;-66
2022/05/15 07:58:12;;;;;;;7.70;1.40;;;;;;;16.52;40.87;100262.75;4265109;28;25786;-67
2022/05/15 08:00:39;;;;;;;4.13;1.00;;;;;;;15.87;42.07;100253.63;4250115;28;25030;-66
2022/05/15 08:03:09;;;;;;;8.13;1.70;;;;;;;15.81;42.12;100260.56;4274240;28;20246;-65
2022/05/15 08:08:24;;;;;;;7.10;1.47;;;;;;;17.06;39.40;100265.03;4254948;28;20237;-68
2022/05/15 08:10:51;;;;;;;8.37;1.63;;;;;;;17.02;39.06;100261.06;4252082;28;20234;-65
2022/05/15 08:13:20;;;;;;;10.73;1.63;;;;;;;16.39;40.47;100261.56;4263097;28;20933;-67
2022/05/15 08:15:47;;;;;;;9.37;1.40;;;;;;;16.23;41.40;100257.22;4265129;28;22217;-66
2022/05/15 08:23:51;;;;;;;8.03;1.33;;;;;;;16.21;40.86;100258.44;4238610;28;20240;-67
2022/05/15 08:26:19;;;;;;;11.40;1.47;;;;;;;16.25;40.86;100259.75;4253287;28;20227;-68
2022/05/15 08:28:47;;;;;;;8.30;1.10;;;;;;;16.37;41.20;100263.59;4233098;28;20592;-65
2022/05/15 08:31:14;;;;;;;8.27;1.37;;;;;;;16.68;41.50;100265.22;4262276;28;20274;-67
2022/05/15 08:33:41;;;;;;;6.17;1.40;;;;;;;16.65;40.84;100265.59;4225340;28;21215;-68
2022/05/15 08:36:08;;;;;;;10.77;1.37;;;;;;;16.49;41.77;100277.41;4243325;28;20242;-65
2022/05/15 08:38:35;;;;;;;6.77;1.50;;;;;;;15.99;41.19;100270.91;4238731;28;20227;-67
2022/05/15 08:41:31;;;;;;;6.93;1.23;;;;;;;16.06;41.15;100271.00;4254038;28;21344;-68
2022/05/15 08:44:11;;;;;;;3.37;1.00;;;;;;;16.30;41.18;100262.69;4226458;28;20526;-66
2022/05/15 08:46:49;;;;;;;7.30;1.40;;;;;;;16.75;40.95;100262.59;4229470;28;20240;-67
2022/05/15 08:49:20;;;;;;;7.27;1.50;;;;;;;16.86;39.46;100271.03;4243184;28;20227;-67
2022/05/15 08:51:56;;;;;;;12.10;1.60;;;;;;;16.32;40.22;100275.91;4245381;28;20239;-67
2022/05/15 08:54:23;;;;;;;7.40;1.40;;;;;;;16.15;41.04;100280.66;4266149;28;20357;-67
2022/05/15 08:56:50;;;;;;;7.77;1.40;;;;;;;16.28;40.64;100274.63;4248081;28;20228;-68
2022/05/15 08:59:24;;;;;;;7.63;1.50;;;;;;;16.54;40.73;100284.88;4232683;28;20989;-69
2022/05/15 09:01:52;;;;;;;12.83;1.90;;;;;;;16.23;41.94;100273.34;4247615;28;20240;-66
2022/05/15 09:04:19;;;;;;;7.10;1.23;;;;;;;15.91;43.33;100277.22;4242559;28;21262;-68
2022/05/15 09:07:12;;;;;;;15.93;1.73;;;;;;;15.91;43.21;100279.91;4247778;28;20223;-66
2022/05/15 09:09:53;;;;;;;10.93;1.50;;;;;;;15.58;42.82;100282.03;4240065;28;20996;-65
2022/05/15 09:12:23;;;;;;;6.20;1.40;;;;;;;15.55;43.27;100285.09;4246721;28;20231;-63
2022/05/15 09:15:00;;;;;;;14.47;1.83;;;;;;;15.90;43.36;100290.84;4228943;28;21198;-63
2022/05/15 09:17:46;;;;;;;6.93;1.47;;;;;;;16.13;41.31;100288.91;4230742;28;20237;-66
2022/05/15 09:20:24;;;;;;;8.30;1.40;;;;;;;16.23;41.13;100294.81;4242916;28;20270;-65
2022/05/15 09:22:56;;;;;;;9.33;1.90;;;;;;;16.58;39.76;100283.50;4250307;28;22906;-64
2022/05/15 09:25:24;;;;;;;6.10;1.40;;;;;;;16.17;41.14;100289.34;4237508;28;20222;-65
2022/05/15 09:28:00;;;;;;;6.53;1.20;;;;;;;16.04;40.88;100282.78;4233385;28;20262;-65
2022/05/15 09:30:38;;;;;;;5.33;1.20;;;;;;;16.56;40.54;100293.59;4247613;28;20234;-65
2022/05/15 09:33:06;;;;;;;6.30;1.40;;;;;;;16.10;41.01;100297.31;4242305;28;23488;-67
2022/05/15 09:35:37;;;;;;;7.13;1.43;;;;;;;16.07;41.64;100304.91;4274506;28;21127;-65
2022/05/15 09:43:54;;;;;;;7.67;1.40;;;;;;;16.54;41.33;100295.63;4247074;28;24225;-64
2022/05/15 09:46:24;;;;;;;5.77;1.47;;;;;;;16.54;40.97;100291.09;4240025;28;20656;-66
2022/05/15 09:49:19;;;;;;;6.03;1.40;;;;;;;16.21;40.72;100298.72;4241154;28;26281;-65
2022/05/15 09:51:48;;;;;;;6.97;1.60;;;;;;;16.09;41.34;100303.72;4238321;28;22415;-65
2022/05/15 09:54:38;;;;;;;6.90;1.30;;;;;;;16.15;41.04;100311.00;4266339;28;20263;-67
2022/05/15 09:57:22;;;;;;;7.90;1.67;;;;;;;16.28;40.81;100299.63;4247775;28;20342;-65
2022/05/15 10:00:00;;;;;;;4.50;1.20;;;;;;;16.64;40.01;100298.84;4237533;28;20319;-65
2022/05/15 10:02:42;;;;;;;11.93;3.47;;;;;;;16.75;40.63;100303.75;4241895;28;22138;-64
2022/05/15 10:05:16;;;;;;;4.47;1.30;;;;;;;16.67;38.87;100317.31;4227987;28;20231;-64
2022/05/15 10:07:51;;;;;;;7.60;1.50;;;;;;;16.40;38.30;100316.13;4234040;28;21660;-66
2022/05/15 10:10:22;;;;;;;5.50;1.40;;;;;;;16.14;38.70;100316.56;4249531;28;20250;-65
2022/05/15 10:13:04;;;;;;;6.70;1.33;;;;;;;16.42;38.93;100303.34;4243231;28;20230;-68
2022/05/15 10:15:36;;;;;;;5.50;1.50;;;;;;;16.70;38.95;100295.41;4250150;28;24776;-64
2022/05/15 10:18:04;;;;;;;11.63;1.60;;;;;;;16.79;39.92;100294.31;4235935;28;20729;-64
2022/05/15 10:20:34;;;;;;;6.30;1.43;;;;;;;16.36;41.07;100302.22;4256452;28;20243;-67
2022/05/15 10:23:12;;;;;;;6.10;1.43;;;;;;;16.11;40.34;100293.63;4232367;28;20332;-65
2022/05/15 10:25:48;;;;;;;11.13;1.40;;;;;;;16.24;39.48;100301.00;4237940;28;20235;-64
2022/05/15 10:28:51;;;;;;;6.97;1.33;;;;;;;16.42;38.96;100301.47;4238624;28;20764;-64
2022/05/15 10:31:23;;;;;;;7.07;1.47;;;;;;;16.58;38.90;100296.94;4236312;28;20342;-65
2022/05/15 10:33:53;;;;;;;7.90;1.73;;;;;;;16.79;38.26;100291.63;4223339;28;20448;-66
2022/05/15 10:36:50;;;;;;;7.60;1.30;;;;;;;16.93;38.22;100294.44;4240825;28;20224;-65
2022/05/15 10:39:54;;;;;;;8.57;1.60;;;;;;;16.83;39.25;100300.13;4248388;28;20313;-64
2022/05/15 10:42:51;;;;;;;12.07;3.20;;;;;;;16.53;39.26;100302.88;4260135;28;20226;-64
2022/05/15 10:45:30;;;;;;;5.77;1.50;;;;;;;16.61;38.41;100299.25;4256160;28;21347;-64
2022/05/15 10:48:03;;;;;;;4.37;1.27;;;;;;;16.54;38.19;100295.63;4244125;28;20642;-66
2022/05/15 10:50:40;;;;;;;8.93;1.53;;;;;;;16.76;39.06;100289.28;4241577;28;20331;-66
2022/05/15 10:59:45;;;;;;;4.83;1.40;;;;;;;17.30;37.79;100294.25;4243408;28;20401;-66
2022/05/15 11:02:22;;;;;;;5.67;1.33;;;;;;;16.95;37.17;100293.28;4251907;28;20231;-64
2022/05/15 11:05:07;;;;;;;4.63;1.20;;;;;;;16.73;37.79;100295.03;4251372;28;20231;-64
2022/05/15 11:07:43;;;;;;;6.00;1.30;;;;;;;16.85;37.33;100293.53;4239825;28;20231;-65
2022/05/15 11:10:32;;;;;;;6.83;1.33;;;;;;;17.23;36.94;100298.72;4238943;28;20243;-64
2022/05/15 11:13:12;;;;;;;10.13;1.30;;;;;;;17.41;36.26;100297.44;4253317;28;20252;-65
2022/05/15 11:15:46;;;;;;;8.83;2.20;;;;;;;17.60;34.45;100301.31;4247784;28;20244;-65
2022/05/15 11:18:22;;;;;;;6.60;1.23;;;;;;;17.55;35.87;100287.63;4270739;28;20298;-63
2022/05/15 11:20:56;;;;;;;9.03;1.33;;;;;;;17.20;36.30;100296.41;4245112;28;20273;-66
2022/05/15 11:23:29;;;;;;;7.10;1.10;;;;;;;17.27;36.90;100302.69;4253389;28;20519;-65
2022/05/15 11:26:02;;;;;;;7.13;1.20;;;;;;;17.19;37.57;100284.00;4251311;28;20577;-65
2022/05/15 11:29:01;;;;;;;3.00;0.93;;;;;;;17.62;36.25;100278.56;4264204;28;22549;-63
2022/05/15 11:31:32;;;;;;;6.70;1.37;;;;;;;17.51;35.18;100292.53;4262536;28;22420;-63
2022/05/15 11:34:02;;;;;;;6.00;1.20;;;;;;;17.35;34.75;100285.59;4262023;28;20246;-64
2022/05/15 11:36:40;;;;;;;7.20;1.20;;;;;;;17.68;35.25;100282.34;4254241;28;20230;-66
2022/05/15 11:39:12;;;;;;;6.87;1.20;;;;;;;17.55;35.54;100283.06;4280024;28;20226;-67
2022/05/15 11:42:08;;;;;;;4.70;1.30;;;;;;;17.22;35.98;100278.22;4261800;28;21285;-66
2022/05/15 11:44:37;;;;;;;5.60;1.63;;;;;;;17.21;36.55;100284.63;4264329;28;20725;-65
2022/05/15 11:47:19;;;;;;;7.80;1.60;;;;;;;17.64;34.80;100284.59;4250918;28;21779;-63
2022/05/15 11:50:15;;;;;;;6.27;1.40;;;;;;;17.82;34.23;100283.31;4244720;28;20238;-66
2022/05/15 11:52:54;;;;;;;4.63;1.50;;;;;;;18.02;33.59;100278.06;4229333;28;20226;-63
2022/05/15 11:55:43;;;;;;;6.27;1.30;;;;;;;17.92;34.53;100268.47;4249836;28;20384;-64
2022/05/15 11:58:16;;;;;;;5.83;1.47;;;;;;;18.09;34.15;100268.97;4237382;28;20292;-64
2022/05/15 12:00:43;;;;;;;5.87;1.23;;;;;;;18.13;34.46;100267.56;4238660;28;20305;-64
2022/05/15 12:03:39;;;;;;;4.60;1.37;;;;;;;18.11;34.41;100261.53;4275242;28;20231;-65